sensor_id;sensor_type;location;lat;lon;timestamp;P1;durP1;ratioP1;P2;durP2;ratioP2
26474;SDS011;14161;52.270;10.334;2023-07-30T00:00:36;1.33;;;1.05;;
26474;SDS011;14161;52.270;10.334;2023-07-30T00:03:01;1.17;;;1.05;;
26474;SDS011;14161;52.270;10.334;2023-07-30T00:05:27;1.15;;;1.00;;
26474;SDS011;14161;52.270;10.334;2023-07-30T00:07:53;1.98;;;1.00;;
26474;SDS011;14161;52.270;10.334;2023-07-30T00:10:19;1.27;;;1.17;;
26474;SDS011;14161;52.270;10.334;2023-07-30T00:12:46;1.10;;;0.90;;
26474;SDS011;14161;52.270;10.334;2023-07-30T00:15:11;0.82;;;0.82;;
26474;SDS011;14161;52.270;10.334;2023-07-30T00:17:38;1.00;;;0.73;;
26474;SDS011;14161;52.270;10.334;2023-07-30T00:20:05;0.98;;;0.90;;
26474;SDS011;14161;52.270;10.334;2023-07-30T00:22:32;3.15;;;0.80;;
26474;SDS011;14161;52.270;10.334;2023-07-30T00:24:57;1.17;;;0.80;;
26474;SDS011;14161;52.270;10.334;2023-07-30T00:27:23;0.93;;;0.90;;
26474;SDS011;14161;52.270;10.334;2023-07-30T00:29:49;0.88;;;0.88;;
26474;SDS011;14161;52.270;10.334;2023-07-30T00:32:15;0.93;;;0.90;;
26474;SDS011;14161;52.270;10.334;2023-07-30T00:34:42;1.30;;;0.90;;
26474;SDS011;14161;52.270;10.334;2023-07-30T00:37:07;1.17;;;1.02;;
26474;SDS011;14161;52.270;10.334;2023-07-30T00:39:33;1.20;;;1.10;;
26474;SDS011;14161;52.270;10.334;2023-07-30T00:41:58;1.33;;;0.77;;
26474;SDS011;14161;52.270;10.334;2023-07-30T00:44:25;0.80;;;0.77;;
26474;SDS011;14161;52.270;10.334;2023-07-30T00:46:50;1.38;;;0.93;;
26474;SDS011;14161;52.270;10.334;2023-07-30T00:49:18;0.90;;;0.90;;
26474;SDS011;14161;52.270;10.334;2023-07-30T00:51:44;1.40;;;0.93;;
26474;SDS011;14161;52.270;10.334;2023-07-30T00:54:10;1.23;;;0.82;;
26474;SDS011;14161;52.270;10.334;2023-07-30T00:56:36;1.10;;;1.00;;
26474;SDS011;14161;52.270;10.334;2023-07-30T00:59:02;4.13;;;1.30;;
26474;SDS011;14161;52.270;10.334;2023-07-30T01:01:27;2.10;;;1.08;;
26474;SDS011;14161;52.270;10.334;2023-07-30T01:03:54;0.93;;;0.88;;
26474;SDS011;14161;52.270;10.334;2023-07-30T01:06:20;1.20;;;1.10;;
26474;SDS011;14161;52.270;10.334;2023-07-30T01:08:46;1.50;;;1.10;;
26474;SDS011;14161;52.270;10.334;2023-07-30T01:11:11;2.60;;;0.90;;
26474;SDS011;14161;52.270;10.334;2023-07-30T01:13:37;0.80;;;0.80;;
26474;SDS011;14161;52.270;10.334;2023-07-30T01:16:04;0.70;;;0.70;;
26474;SDS011;14161;52.270;10.334;2023-07-30T01:18:29;1.00;;;0.90;;
26474;SDS011;14161;52.270;10.334;2023-07-30T01:20:58;0.82;;;0.82;;
26474;SDS011;14161;52.270;10.334;2023-07-30T01:23:24;5.00;;;1.30;;
26474;SDS011;14161;52.270;10.334;2023-07-30T01:25:53;1.30;;;0.90;;
26474;SDS011;14161;52.270;10.334;2023-07-30T01:28:43;1.33;;;0.93;;
26474;SDS011;14161;52.270;10.334;2023-07-30T01:31:12;0.98;;;0.90;;
26474;SDS011;14161;52.270;10.334;2023-07-30T01:33:40;1.35;;;0.90;;
26474;SDS011;14161;52.270;10.334;2023-07-30T01:36:05;1.35;;;1.17;;
26474;SDS011;14161;52.270;10.334;2023-07-30T01:38:33;2.30;;;1.08;;
26474;SDS011;14161;52.270;10.334;2023-07-30T01:40:59;1.45;;;1.00;;
26474;SDS011;14161;52.270;10.334;2023-07-30T01:43:24;1.42;;;1.30;;
26474;SDS011;14161;52.270;10.334;2023-07-30T01:45:50;1.15;;;1.02;;
26474;SDS011;14161;52.270;10.334;2023-07-30T01:48:16;0.95;;;0.80;;
26474;SDS011;14161;52.270;10.334;2023-07-30T01:50:41;1.00;;;0.80;;
26474;SDS011;14161;52.270;10.334;2023-07-30T01:53:08;1.10;;;1.00;;
26474;SDS011;14161;52.270;10.334;2023-07-30T01:55:34;0.70;;;0.70;;
26474;SDS011;14161;52.270;10.334;2023-07-30T01:58:00;1.33;;;1.00;;
26474;SDS011;14161;52.270;10.334;2023-07-30T02:00:25;1.17;;;1.08;;
26474;SDS011;14161;52.270;10.334;2023-07-30T02:03:03;1.45;;;1.08;;
26474;SDS011;14161;52.270;10.334;2023-07-30T02:05:29;1.58;;;1.20;;
26474;SDS011;14161;52.270;10.334;2023-07-30T02:07:54;1.10;;;1.00;;
26474;SDS011;14161;52.270;10.334;2023-07-30T02:10:20;1.77;;;1.17;;
26474;SDS011;14161;52.270;10.334;2023-07-30T02:12:45;1.33;;;1.17;;
26474;SDS011;14161;52.270;10.334;2023-07-30T02:15:11;1.10;;;0.90;;
26474;SDS011;14161;52.270;10.334;2023-07-30T02:17:36;1.92;;;0.90;;
26474;SDS011;14161;52.270;10.334;2023-07-30T02:20:02;1.00;;;1.00;;
26474;SDS011;14161;52.270;10.334;2023-07-30T02:22:28;1.08;;;0.98;;
26474;SDS011;14161;52.270;10.334;2023-07-30T02:24:53;0.93;;;0.93;;
26474;SDS011;14161;52.270;10.334;2023-07-30T02:27:18;1.30;;;1.20;;
26474;SDS011;14161;52.270;10.334;2023-07-30T02:29:44;1.17;;;0.98;;
26474;SDS011;14161;52.270;10.334;2023-07-30T02:32:09;1.20;;;1.10;;
26474;SDS011;14161;52.270;10.334;2023-07-30T02:34:35;1.80;;;1.23;;
26474;SDS011;14161;52.270;10.334;2023-07-30T02:37:00;1.88;;;1.05;;
26474;SDS011;14161;52.270;10.334;2023-07-30T02:39:26;1.58;;;1.08;;
26474;SDS011;14161;52.270;10.334;2023-07-30T02:41:51;0.88;;;0.88;;
26474;SDS011;14161;52.270;10.334;2023-07-30T02:44:16;1.30;;;1.20;;
26474;SDS011;14161;52.270;10.334;2023-07-30T02:46:42;1.30;;;1.10;;
26474;SDS011;14161;52.270;10.334;2023-07-30T02:49:07;1.25;;;1.15;;
26474;SDS011;14161;52.270;10.334;2023-07-30T02:51:33;2.40;;;1.17;;
26474;SDS011;14161;52.270;10.334;2023-07-30T02:54:03;1.40;;;1.30;;
26474;SDS011;14161;52.270;10.334;2023-07-30T02:56:29;2.88;;;1.83;;
26474;SDS011;14161;52.270;10.334;2023-07-30T02:58:54;1.50;;;1.20;;
26474;SDS011;14161;52.270;10.334;2023-07-30T03:01:20;2.03;;;1.25;;
26474;SDS011;14161;52.270;10.334;2023-07-30T03:03:45;2.65;;;1.27;;
26474;SDS011;14161;52.270;10.334;2023-07-30T03:06:11;1.67;;;0.98;;
26474;SDS011;14161;52.270;10.334;2023-07-30T03:08:36;1.63;;;1.20;;
26474;SDS011;14161;52.270;10.334;2023-07-30T03:11:03;1.58;;;1.25;;
26474;SDS011;14161;52.270;10.334;2023-07-30T03:13:29;1.67;;;1.30;;
26474;SDS011;14161;52.270;10.334;2023-07-30T03:15:54;4.35;;;1.38;;
26474;SDS011;14161;52.270;10.334;2023-07-30T03:18:20;1.40;;;1.20;;
26474;SDS011;14161;52.270;10.334;2023-07-30T03:20:45;3.95;;;1.30;;
26474;SDS011;14161;52.270;10.334;2023-07-30T03:23:11;2.25;;;1.40;;
26474;SDS011;14161;52.270;10.334;2023-07-30T03:25:36;2.15;;;1.20;;
26474;SDS011;14161;52.270;10.334;2023-07-30T03:28:01;3.35;;;1.45;;
26474;SDS011;14161;52.270;10.334;2023-07-30T03:30:27;2.30;;;1.20;;
26474;SDS011;14161;52.270;10.334;2023-07-30T03:32:52;1.60;;;1.20;;
26474;SDS011;14161;52.270;10.334;2023-07-30T03:35:18;2.40;;;1.40;;
26474;SDS011;14161;52.270;10.334;2023-07-30T03:37:43;2.67;;;1.40;;
26474;SDS011;14161;52.270;10.334;2023-07-30T03:40:09;1.38;;;1.27;;
26474;SDS011;14161;52.270;10.334;2023-07-30T03:42:35;1.45;;;1.20;;
26474;SDS011;14161;52.270;10.334;2023-07-30T03:45:00;3.53;;;1.50;;
26474;SDS011;14161;52.270;10.334;2023-07-30T03:47:26;4.47;;;1.35;;
26474;SDS011;14161;52.270;10.334;2023-07-30T03:49:51;2.88;;;1.55;;
26474;SDS011;14161;52.270;10.334;2023-07-30T03:52:17;1.33;;;1.23;;
26474;SDS011;14161;52.270;10.334;2023-07-30T03:54:42;1.55;;;1.35;;
26474;SDS011;14161;52.270;10.334;2023-07-30T03:57:08;2.95;;;1.45;;
26474;SDS011;14161;52.270;10.334;2023-07-30T03:59:33;2.72;;;1.45;;
26474;SDS011;14161;52.270;10.334;2023-07-30T04:01:59;2.28;;;1.30;;
26474;SDS011;14161;52.270;10.334;2023-07-30T04:04:24;2.50;;;1.42;;
26474;SDS011;14161;52.270;10.334;2023-07-30T04:06:50;2.78;;;1.55;;
26474;SDS011;14161;52.270;10.334;2023-07-30T04:09:15;5.60;;;1.50;;
26474;SDS011;14161;52.270;10.334;2023-07-30T04:11:41;2.78;;;1.55;;
26474;SDS011;14161;52.270;10.334;2023-07-30T04:14:06;2.90;;;1.55;;
26474;SDS011;14161;52.270;10.334;2023-07-30T04:16:34;1.80;;;1.25;;
26474;SDS011;14161;52.270;10.334;2023-07-30T04:18:59;2.70;;;1.60;;
26474;SDS011;14161;52.270;10.334;2023-07-30T04:21:24;3.92;;;1.60;;
26474;SDS011;14161;52.270;10.334;2023-07-30T04:23:50;3.78;;;1.77;;
26474;SDS011;14161;52.270;10.334;2023-07-30T04:26:16;2.53;;;1.60;;
26474;SDS011;14161;52.270;10.334;2023-07-30T04:28:42;3.42;;;1.60;;
26474;SDS011;14161;52.270;10.334;2023-07-30T04:31:08;3.88;;;1.65;;
26474;SDS011;14161;52.270;10.334;2023-07-30T04:33:34;4.20;;;1.50;;
26474;SDS011;14161;52.270;10.334;2023-07-30T04:36:00;3.05;;;1.50;;
26474;SDS011;14161;52.270;10.334;2023-07-30T04:38:26;3.40;;;1.58;;
26474;SDS011;14161;52.270;10.334;2023-07-30T04:40:51;2.38;;;1.42;;
26474;SDS011;14161;52.270;10.334;2023-07-30T04:43:17;2.70;;;1.40;;
26474;SDS011;14161;52.270;10.334;2023-07-30T04:45:44;2.30;;;1.60;;
26474;SDS011;14161;52.270;10.334;2023-07-30T04:48:11;2.17;;;1.55;;
26474;SDS011;14161;52.270;10.334;2023-07-30T04:50:36;2.22;;;1.38;;
26474;SDS011;14161;52.270;10.334;2023-07-30T04:53:04;2.17;;;1.48;;
26474;SDS011;14161;52.270;10.334;2023-07-30T04:55:29;3.20;;;1.65;;
26474;SDS011;14161;52.270;10.334;2023-07-30T04:57:56;3.58;;;1.48;;
26474;SDS011;14161;52.270;10.334;2023-07-30T05:00:21;1.85;;;1.33;;
26474;SDS011;14161;52.270;10.334;2023-07-30T05:02:47;2.22;;;1.40;;
26474;SDS011;14161;52.270;10.334;2023-07-30T05:05:12;1.52;;;1.35;;
26474;SDS011;14161;52.270;10.334;2023-07-30T05:07:38;2.80;;;1.50;;
26474;SDS011;14161;52.270;10.334;2023-07-30T05:10:04;5.72;;;2.10;;
26474;SDS011;14161;52.270;10.334;2023-07-30T05:12:31;4.18;;;1.60;;
26474;SDS011;14161;52.270;10.334;2023-07-30T05:14:57;4.53;;;1.27;;
26474;SDS011;14161;52.270;10.334;2023-07-30T05:17:22;4.82;;;1.70;;
26474;SDS011;14161;52.270;10.334;2023-07-30T05:19:47;5.65;;;1.95;;
26474;SDS011;14161;52.270;10.334;2023-07-30T05:22:13;3.25;;;1.40;;
26474;SDS011;14161;52.270;10.334;2023-07-30T05:24:38;2.58;;;1.52;;
26474;SDS011;14161;52.270;10.334;2023-07-30T05:27:04;3.17;;;1.52;;
26474;SDS011;14161;52.270;10.334;2023-07-30T05:29:30;2.60;;;1.50;;
26474;SDS011;14161;52.270;10.334;2023-07-30T05:31:55;3.78;;;1.52;;
26474;SDS011;14161;52.270;10.334;2023-07-30T05:34:21;4.57;;;2.00;;
26474;SDS011;14161;52.270;10.334;2023-07-30T05:36:46;3.95;;;1.58;;
26474;SDS011;14161;52.270;10.334;2023-07-30T05:39:11;3.40;;;1.60;;
26474;SDS011;14161;52.270;10.334;2023-07-30T05:41:37;4.40;;;1.83;;
26474;SDS011;14161;52.270;10.334;2023-07-30T05:44:02;3.13;;;1.60;;
26474;SDS011;14161;52.270;10.334;2023-07-30T05:46:28;3.13;;;1.98;;
26474;SDS011;14161;52.270;10.334;2023-07-30T05:48:53;3.20;;;1.88;;
26474;SDS011;14161;52.270;10.334;2023-07-30T05:51:19;5.00;;;2.13;;
26474;SDS011;14161;52.270;10.334;2023-07-30T05:53:44;3.55;;;1.80;;
26474;SDS011;14161;52.270;10.334;2023-07-30T05:56:10;4.68;;;2.03;;
26474;SDS011;14161;52.270;10.334;2023-07-30T05:58:38;4.25;;;2.28;;
26474;SDS011;14161;52.270;10.334;2023-07-30T06:01:03;3.50;;;2.15;;
26474;SDS011;14161;52.270;10.334;2023-07-30T06:03:28;4.55;;;2.42;;
26474;SDS011;14161;52.270;10.334;2023-07-30T06:05:54;4.68;;;2.78;;
26474;SDS011;14161;52.270;10.334;2023-07-30T06:08:19;3.83;;;2.47;;
26474;SDS011;14161;52.270;10.334;2023-07-30T06:10:45;2.78;;;2.22;;
26474;SDS011;14161;52.270;10.334;2023-07-30T06:13:12;3.83;;;2.88;;
26474;SDS011;14161;52.270;10.334;2023-07-30T06:15:37;2.95;;;2.55;;
26474;SDS011;14161;52.270;10.334;2023-07-30T06:18:03;4.68;;;3.17;;
26474;SDS011;14161;52.270;10.334;2023-07-30T06:20:29;5.70;;;3.35;;
26474;SDS011;14161;52.270;10.334;2023-07-30T06:22:56;4.10;;;3.17;;
26474;SDS011;14161;52.270;10.334;2023-07-30T06:25:21;6.68;;;3.65;;
26474;SDS011;14161;52.270;10.334;2023-07-30T06:27:47;7.00;;;3.88;;
26474;SDS011;14161;52.270;10.334;2023-07-30T06:30:12;4.80;;;3.20;;
26474;SDS011;14161;52.270;10.334;2023-07-30T06:32:38;6.05;;;4.07;;
26474;SDS011;14161;52.270;10.334;2023-07-30T06:35:03;7.78;;;3.88;;
26474;SDS011;14161;52.270;10.334;2023-07-30T06:37:29;8.68;;;3.63;;
26474;SDS011;14161;52.270;10.334;2023-07-30T06:39:55;5.88;;;3.53;;
26474;SDS011;14161;52.270;10.334;2023-07-30T06:42:20;7.13;;;3.97;;
26474;SDS011;14161;52.270;10.334;2023-07-30T06:44:45;7.65;;;4.07;;
26474;SDS011;14161;52.270;10.334;2023-07-30T06:47:11;5.53;;;3.42;;
26474;SDS011;14161;52.270;10.334;2023-07-30T06:49:36;5.28;;;3.22;;
26474;SDS011;14161;52.270;10.334;2023-07-30T06:52:02;4.72;;;3.17;;
26474;SDS011;14161;52.270;10.334;2023-07-30T06:54:29;3.50;;;2.75;;
26474;SDS011;14161;52.270;10.334;2023-07-30T06:56:54;5.13;;;3.15;;
26474;SDS011;14161;52.270;10.334;2023-07-30T06:59:21;4.82;;;3.17;;
26474;SDS011;14161;52.270;10.334;2023-07-30T07:01:46;4.82;;;2.78;;
26474;SDS011;14161;52.270;10.334;2023-07-30T07:04:12;8.20;;;3.05;;
26474;SDS011;14161;52.270;10.334;2023-07-30T07:06:37;4.63;;;2.60;;
26474;SDS011;14161;52.270;10.334;2023-07-30T07:09:03;5.63;;;2.38;;
26474;SDS011;14161;52.270;10.334;2023-07-30T07:11:28;7.65;;;2.05;;
26474;SDS011;14161;52.270;10.334;2023-07-30T07:13:53;3.85;;;2.17;;
26474;SDS011;14161;52.270;10.334;2023-07-30T07:16:19;3.92;;;1.65;;
26474;SDS011;14161;52.270;10.334;2023-07-30T07:18:44;4.38;;;1.60;;
26474;SDS011;14161;52.270;10.334;2023-07-30T07:21:10;4.05;;;1.45;;
26474;SDS011;14161;52.270;10.334;2023-07-30T07:23:36;2.13;;;1.40;;
26474;SDS011;14161;52.270;10.334;2023-07-30T07:26:06;3.35;;;1.52;;
26474;SDS011;14161;52.270;10.334;2023-07-30T07:28:32;4.88;;;1.40;;
26474;SDS011;14161;52.270;10.334;2023-07-30T07:30:57;3.33;;;1.70;;
26474;SDS011;14161;52.270;10.334;2023-07-30T07:33:22;1.10;;;1.00;;
26474;SDS011;14161;52.270;10.334;2023-07-30T07:35:48;2.22;;;1.17;;
26474;SDS011;14161;52.270;10.334;2023-07-30T07:38:13;5.13;;;1.67;;
26474;SDS011;14161;52.270;10.334;2023-07-30T07:40:39;2.92;;;1.25;;
26474;SDS011;14161;52.270;10.334;2023-07-30T07:43:06;2.88;;;1.30;;
26474;SDS011;14161;52.270;10.334;2023-07-30T07:45:32;4.57;;;1.13;;
26474;SDS011;14161;52.270;10.334;2023-07-30T07:47:57;2.83;;;1.67;;
26474;SDS011;14161;52.270;10.334;2023-07-30T07:50:22;6.53;;;1.73;;
26474;SDS011;14161;52.270;10.334;2023-07-30T07:52:48;4.35;;;1.50;;
26474;SDS011;14161;52.270;10.334;2023-07-30T07:55:13;3.10;;;1.38;;
26474;SDS011;14161;52.270;10.334;2023-07-30T07:57:39;4.00;;;1.65;;
26474;SDS011;14161;52.270;10.334;2023-07-30T08:00:05;4.80;;;1.50;;
26474;SDS011;14161;52.270;10.334;2023-07-30T08:02:37;2.22;;;1.15;;
26474;SDS011;14161;52.270;10.334;2023-07-30T08:05:02;3.10;;;1.42;;
26474;SDS011;14161;52.270;10.334;2023-07-30T08:07:28;2.72;;;1.27;;
26474;SDS011;14161;52.270;10.334;2023-07-30T08:09:54;2.10;;;1.30;;
26474;SDS011;14161;52.270;10.334;2023-07-30T08:12:19;4.40;;;1.10;;
26474;SDS011;14161;52.270;10.334;2023-07-30T08:14:45;2.88;;;1.45;;
26474;SDS011;14161;52.270;10.334;2023-07-30T08:17:10;4.68;;;1.70;;
26474;SDS011;14161;52.270;10.334;2023-07-30T08:19:36;1.88;;;1.08;;
26474;SDS011;14161;52.270;10.334;2023-07-30T08:22:01;2.75;;;1.55;;
26474;SDS011;14161;52.270;10.334;2023-07-30T08:24:27;5.68;;;1.50;;
26474;SDS011;14161;52.270;10.334;2023-07-30T08:26:52;3.03;;;1.50;;
26474;SDS011;14161;52.270;10.334;2023-07-30T08:29:18;2.50;;;1.63;;
26474;SDS011;14161;52.270;10.334;2023-07-30T08:31:43;1.95;;;1.30;;
26474;SDS011;14161;52.270;10.334;2023-07-30T08:34:09;2.20;;;1.13;;
26474;SDS011;14161;52.270;10.334;2023-07-30T08:36:34;3.75;;;1.38;;
26474;SDS011;14161;52.270;10.334;2023-07-30T08:39:00;5.03;;;1.40;;
26474;SDS011;14161;52.270;10.334;2023-07-30T08:41:27;2.53;;;1.38;;
26474;SDS011;14161;52.270;10.334;2023-07-30T08:43:52;3.70;;;1.52;;
26474;SDS011;14161;52.270;10.334;2023-07-30T08:46:18;3.25;;;1.48;;
26474;SDS011;14161;52.270;10.334;2023-07-30T08:48:43;5.20;;;1.25;;
26474;SDS011;14161;52.270;10.334;2023-07-30T08:51:09;2.67;;;1.30;;
26474;SDS011;14161;52.270;10.334;2023-07-30T08:53:36;3.42;;;1.45;;
26474;SDS011;14161;52.270;10.334;2023-07-30T08:56:02;4.10;;;1.65;;
26474;SDS011;14161;52.270;10.334;2023-07-30T08:58:27;4.70;;;1.17;;
26474;SDS011;14161;52.270;10.334;2023-07-30T09:00:55;1.50;;;1.02;;
26474;SDS011;14161;52.270;10.334;2023-07-30T09:03:20;2.60;;;1.42;;
26474;SDS011;14161;52.270;10.334;2023-07-30T09:05:49;2.85;;;1.25;;
26474;SDS011;14161;52.270;10.334;2023-07-30T09:08:14;3.00;;;1.42;;
26474;SDS011;14161;52.270;10.334;2023-07-30T09:10:40;2.42;;;1.30;;
26474;SDS011;14161;52.270;10.334;2023-07-30T09:13:05;3.72;;;1.42;;
26474;SDS011;14161;52.270;10.334;2023-07-30T09:15:35;2.63;;;1.40;;
26474;SDS011;14161;52.270;10.334;2023-07-30T09:18:04;3.20;;;1.63;;
26474;SDS011;14161;52.270;10.334;2023-07-30T09:20:40;3.72;;;1.15;;
26474;SDS011;14161;52.270;10.334;2023-07-30T09:23:06;2.03;;;1.10;;
26474;SDS011;14161;52.270;10.334;2023-07-30T09:25:32;2.25;;;1.60;;
26474;SDS011;14161;52.270;10.334;2023-07-30T09:27:58;2.75;;;1.40;;
26474;SDS011;14161;52.270;10.334;2023-07-30T09:30:24;3.30;;;1.63;;
26474;SDS011;14161;52.270;10.334;2023-07-30T09:32:51;2.45;;;1.50;;
26474;SDS011;14161;52.270;10.334;2023-07-30T09:35:18;2.22;;;1.50;;
26474;SDS011;14161;52.270;10.334;2023-07-30T09:37:43;3.25;;;1.38;;
26474;SDS011;14161;52.270;10.334;2023-07-30T09:40:10;5.32;;;1.73;;
26474;SDS011;14161;52.270;10.334;2023-07-30T09:42:38;3.03;;;1.33;;
26474;SDS011;14161;52.270;10.334;2023-07-30T09:45:05;2.70;;;1.23;;
26474;SDS011;14161;52.270;10.334;2023-07-30T09:47:36;2.85;;;1.50;;
26474;SDS011;14161;52.270;10.334;2023-07-30T09:50:02;2.65;;;1.10;;
26474;SDS011;14161;52.270;10.334;2023-07-30T09:52:28;2.33;;;1.05;;
26474;SDS011;14161;52.270;10.334;2023-07-30T09:54:57;4.10;;;1.50;;
26474;SDS011;14161;52.270;10.334;2023-07-30T09:57:23;2.25;;;1.20;;
26474;SDS011;14161;52.270;10.334;2023-07-30T09:59:49;4.07;;;1.67;;
26474;SDS011;14161;52.270;10.334;2023-07-30T10:02:14;3.72;;;1.58;;
26474;SDS011;14161;52.270;10.334;2023-07-30T10:04:42;4.95;;;1.52;;
26474;SDS011;14161;52.270;10.334;2023-07-30T10:07:10;3.10;;;1.40;;
26474;SDS011;14161;52.270;10.334;2023-07-30T10:09:40;3.85;;;1.50;;
26474;SDS011;14161;52.270;10.334;2023-07-30T10:12:16;3.00;;;1.20;;
26474;SDS011;14161;52.270;10.334;2023-07-30T10:14:42;5.40;;;1.57;;
26474;SDS011;14161;52.270;10.334;2023-07-30T10:17:09;3.63;;;1.35;;
26474;SDS011;14161;52.270;10.334;2023-07-30T10:19:35;8.32;;;1.73;;
26474;SDS011;14161;52.270;10.334;2023-07-30T10:22:19;3.00;;;1.17;;
26474;SDS011;14161;52.270;10.334;2023-07-30T10:24:57;3.53;;;1.17;;
26474;SDS011;14161;52.270;10.334;2023-07-30T10:27:24;3.30;;;1.33;;
26474;SDS011;14161;52.270;10.334;2023-07-30T10:30:07;2.28;;;1.40;;
26474;SDS011;14161;52.270;10.334;2023-07-30T10:35:06;3.78;;;1.45;;
26474;SDS011;14161;52.270;10.334;2023-07-30T10:37:31;2.85;;;1.20;;
26474;SDS011;14161;52.270;10.334;2023-07-30T10:39:57;3.42;;;1.42;;
26474;SDS011;14161;52.270;10.334;2023-07-30T10:42:22;3.55;;;1.48;;
26474;SDS011;14161;52.270;10.334;2023-07-30T10:44:48;2.45;;;1.10;;
26474;SDS011;14161;52.270;10.334;2023-07-30T10:47:14;4.10;;;1.50;;
26474;SDS011;14161;52.270;10.334;2023-07-30T10:49:39;2.60;;;1.27;;
26474;SDS011;14161;52.270;10.334;2023-07-30T10:52:13;3.83;;;1.60;;
26474;SDS011;14161;52.270;10.334;2023-07-30T10:54:38;5.13;;;1.30;;
26474;SDS011;14161;52.270;10.334;2023-07-30T10:57:04;3.88;;;1.75;;
26474;SDS011;14161;52.270;10.334;2023-07-30T10:59:36;4.30;;;1.80;;
26474;SDS011;14161;52.270;10.334;2023-07-30T11:02:02;10.25;;;1.88;;
26474;SDS011;14161;52.270;10.334;2023-07-30T11:04:28;8.98;;;2.00;;
26474;SDS011;14161;52.270;10.334;2023-07-30T11:06:53;6.95;;;1.90;;
26474;SDS011;14161;52.270;10.334;2023-07-30T11:09:22;4.97;;;1.90;;
26474;SDS011;14161;52.270;10.334;2023-07-30T11:11:49;4.75;;;1.50;;
26474;SDS011;14161;52.270;10.334;2023-07-30T11:14:18;4.60;;;1.60;;
26474;SDS011;14161;52.270;10.334;2023-07-30T11:16:47;4.70;;;1.95;;
26474;SDS011;14161;52.270;10.334;2023-07-30T11:19:18;6.40;;;1.73;;
26474;SDS011;14161;52.270;10.334;2023-07-30T11:21:47;3.13;;;1.75;;
26474;SDS011;14161;52.270;10.334;2023-07-30T11:24:13;4.65;;;2.17;;
26474;SDS011;14161;52.270;10.334;2023-07-30T11:26:39;5.10;;;2.03;;
26474;SDS011;14161;52.270;10.334;2023-07-30T11:29:14;5.25;;;2.13;;
26474;SDS011;14161;52.270;10.334;2023-07-30T11:31:46;6.70;;;2.50;;
26474;SDS011;14161;52.270;10.334;2023-07-30T11:34:12;3.83;;;2.00;;
26474;SDS011;14161;52.270;10.334;2023-07-30T11:36:38;8.25;;;2.55;;
26474;SDS011;14161;52.270;10.334;2023-07-30T11:39:05;4.10;;;2.00;;
26474;SDS011;14161;52.270;10.334;2023-07-30T11:41:31;5.45;;;1.98;;
26474;SDS011;14161;52.270;10.334;2023-07-30T11:43:57;7.63;;;2.03;;
26474;SDS011;14161;52.270;10.334;2023-07-30T11:46:22;7.35;;;2.47;;
26474;SDS011;14161;52.270;10.334;2023-07-30T11:48:49;5.40;;;2.22;;
26474;SDS011;14161;52.270;10.334;2023-07-30T11:51:28;6.78;;;1.88;;
26474;SDS011;14161;52.270;10.334;2023-07-30T11:53:55;3.25;;;1.50;;
26474;SDS011;14161;52.270;10.334;2023-07-30T11:56:24;5.47;;;2.28;;
26474;SDS011;14161;52.270;10.334;2023-07-30T11:58:55;4.72;;;2.33;;
26474;SDS011;14161;52.270;10.334;2023-07-30T12:01:23;2.72;;;1.45;;
26474;SDS011;14161;52.270;10.334;2023-07-30T12:03:49;3.70;;;1.60;;
26474;SDS011;14161;52.270;10.334;2023-07-30T12:06:15;3.13;;;1.40;;
26474;SDS011;14161;52.270;10.334;2023-07-30T12:08:40;5.47;;;1.65;;
26474;SDS011;14161;52.270;10.334;2023-07-30T12:11:07;5.82;;;2.03;;
26474;SDS011;14161;52.270;10.334;2023-07-30T12:13:33;4.97;;;2.15;;
26474;SDS011;14161;52.270;10.334;2023-07-30T12:15:59;4.18;;;2.10;;
26474;SDS011;14161;52.270;10.334;2023-07-30T12:18:25;5.63;;;2.00;;
26474;SDS011;14161;52.270;10.334;2023-07-30T12:20:52;3.85;;;1.77;;
26474;SDS011;14161;52.270;10.334;2023-07-30T12:23:18;4.82;;;2.13;;
26474;SDS011;14161;52.270;10.334;2023-07-30T12:25:44;5.97;;;2.05;;
26474;SDS011;14161;52.270;10.334;2023-07-30T12:28:10;6.93;;;1.75;;
26474;SDS011;14161;52.270;10.334;2023-07-30T12:30:35;5.18;;;1.90;;
26474;SDS011;14161;52.270;10.334;2023-07-30T12:33:05;5.90;;;1.67;;
26474;SDS011;14161;52.270;10.334;2023-07-30T12:35:31;3.75;;;1.58;;
26474;SDS011;14161;52.270;10.334;2023-07-30T12:37:57;5.78;;;2.58;;
26474;SDS011;14161;52.270;10.334;2023-07-30T12:40:23;5.75;;;2.40;;
26474;SDS011;14161;52.270;10.334;2023-07-30T12:42:49;3.78;;;1.83;;
26474;SDS011;14161;52.270;10.334;2023-07-30T12:45:14;4.68;;;1.90;;
26474;SDS011;14161;52.270;10.334;2023-07-30T12:47:40;5.25;;;1.73;;
26474;SDS011;14161;52.270;10.334;2023-07-30T12:50:06;3.83;;;2.00;;
26474;SDS011;14161;52.270;10.334;2023-07-30T12:52:32;6.28;;;1.92;;
26474;SDS011;14161;52.270;10.334;2023-07-30T12:54:58;3.42;;;1.80;;
26474;SDS011;14161;52.270;10.334;2023-07-30T12:57:23;7.47;;;2.05;;
26474;SDS011;14161;52.270;10.334;2023-07-30T12:59:49;6.15;;;2.20;;
26474;SDS011;14161;52.270;10.334;2023-07-30T13:02:15;4.82;;;2.05;;
26474;SDS011;14161;52.270;10.334;2023-07-30T13:04:40;2.90;;;1.60;;
26474;SDS011;14161;52.270;10.334;2023-07-30T13:07:06;4.35;;;1.60;;
26474;SDS011;14161;52.270;10.334;2023-07-30T13:09:31;4.85;;;2.20;;
26474;SDS011;14161;52.270;10.334;2023-07-30T13:11:57;2.75;;;1.65;;
26474;SDS011;14161;52.270;10.334;2023-07-30T13:14:23;2.58;;;1.90;;
26474;SDS011;14161;52.270;10.334;2023-07-30T13:16:48;5.72;;;2.40;;
26474;SDS011;14161;52.270;10.334;2023-07-30T13:19:14;6.85;;;2.60;;
26474;SDS011;14161;52.270;10.334;2023-07-30T13:21:39;4.65;;;2.20;;
26474;SDS011;14161;52.270;10.334;2023-07-30T13:24:05;5.72;;;2.45;;
26474;SDS011;14161;52.270;10.334;2023-07-30T13:26:30;5.97;;;2.55;;
26474;SDS011;14161;52.270;10.334;2023-07-30T13:28:56;4.85;;;2.10;;
26474;SDS011;14161;52.270;10.334;2023-07-30T13:31:21;4.25;;;2.28;;
26474;SDS011;14161;52.270;10.334;2023-07-30T13:33:47;3.90;;;2.58;;
26474;SDS011;14161;52.270;10.334;2023-07-30T13:36:13;6.72;;;2.80;;
26474;SDS011;14161;52.270;10.334;2023-07-30T13:38:39;4.70;;;2.80;;
26474;SDS011;14161;52.270;10.334;2023-07-30T13:41:05;3.75;;;2.50;;
26474;SDS011;14161;52.270;10.334;2023-07-30T13:43:31;4.13;;;3.08;;
26474;SDS011;14161;52.270;10.334;2023-07-30T13:45:57;5.47;;;2.80;;
26474;SDS011;14161;52.270;10.334;2023-07-30T13:48:23;5.78;;;2.95;;
26474;SDS011;14161;52.270;10.334;2023-07-30T13:50:49;4.20;;;2.85;;
26474;SDS011;14161;52.270;10.334;2023-07-30T13:53:15;5.10;;;2.92;;
26474;SDS011;14161;52.270;10.334;2023-07-30T13:55:40;5.20;;;3.08;;
26474;SDS011;14161;52.270;10.334;2023-07-30T13:58:06;6.80;;;2.85;;
26474;SDS011;14161;52.270;10.334;2023-07-30T14:00:31;5.00;;;2.92;;
26474;SDS011;14161;52.270;10.334;2023-07-30T14:02:57;6.93;;;3.30;;
26474;SDS011;14161;52.270;10.334;2023-07-30T14:05:22;7.20;;;2.90;;
26474;SDS011;14161;52.270;10.334;2023-07-30T14:07:48;5.95;;;2.88;;
26474;SDS011;14161;52.270;10.334;2023-07-30T14:10:15;7.13;;;3.13;;
26474;SDS011;14161;52.270;10.334;2023-07-30T14:12:40;3.78;;;2.85;;
26474;SDS011;14161;52.270;10.334;2023-07-30T14:15:06;3.72;;;2.75;;
26474;SDS011;14161;52.270;10.334;2023-07-30T14:17:32;6.10;;;3.03;;
26474;SDS011;14161;52.270;10.334;2023-07-30T14:19:57;5.88;;;3.28;;
26474;SDS011;14161;52.270;10.334;2023-07-30T14:22:23;4.50;;;2.72;;
26474;SDS011;14161;52.270;10.334;2023-07-30T14:24:48;4.32;;;2.63;;
26474;SDS011;14161;52.270;10.334;2023-07-30T14:27:13;4.88;;;2.75;;
26474;SDS011;14161;52.270;10.334;2023-07-30T14:29:40;5.63;;;2.75;;